Suzee Q — WDB4252 — position and weather

sailwx.info

Track history (hours):
 
Tides and Currents Weather Stations Pressure Air Temp Water Temp Dewpoint Dewpoint Depression Visibility Wind Speed Wind Dir Waves Ship Positions

Suzee Q

Owner: SUZEE Q LLC, POQUOSON, VA. More information available from US FCC via Universal Licensing System and Coast Guard Vessel Documentation Center.

Last reported at 2018-Jul-14 10:12 UTC. Time now 2018-Jul-21 13:47 UTC.
Position N 40°14' W 072°06'.

Length 24 m.

Type: Fishing. MMSI: 366896420.

Date/timePositionNaut miles runAvg speedWind from/ knotsBaromVisibWave heightAir tempDewpointWater temp
2018-Jul-14 10:12N 40°14' W 072°06'2 4.3
2018-Jul-14 09:50N 40°13' W 072°04'2 5.3
2018-Jul-14 09:30N 40°13' W 072°02'1 0.9
2018-Jul-14 08:02N 40°13' W 072°03'0 4.7
2018-Jul-14 07:59N 40°13' W 072°03'1 1.2
2018-Jul-14 07:30N 40°13' W 072°02'2 4.4
2018-Jul-14 07:00N 40°14' W 072°05'1 1.5
2018-Jul-14 06:30N 40°13' W 072°04'2 4.2
2018-Jul-14 06:00N 40°13' W 072°01'3 3.9
2018-Jul-14 05:09N 40°13' W 072°06'1 4.9
2018-Jul-14 05:00N 40°13' W 072°05'  
2018-Jul-04 12:49N 40°13' W 072°02'0 1.1
2018-Jul-04 12:27N 40°13' W 072°01'1 1.6
2018-Jul-04 11:34N 40°13' W 072°03'0 4.8
2018-Jul-04 11:30N 40°13' W 072°04'  
Track history (hours):
 
Tides and Currents Weather Stations Pressure Air Temp Water Temp Dewpoint Dewpoint Depression Visibility Wind Speed Wind Dir Waves Ship Positions

Suzee Q

Owner: SUZEE Q LLC, POQUOSON, VA. More information available from US FCC via Universal Licensing System and Coast Guard Vessel Documentation Center.

Last reported at 2018-Jul-14 10:12 UTC. Time now 2018-Jul-21 13:47 UTC.
Position N 40°14' W 072°06'.

Length 24 m.

Type: Fishing. MMSI: 366896420.

Date/timePositionNaut miles runAvg speedWind from/ knotsBaromVisibWave heightAir tempDewpointWater temp
2018-Jul-14 10:12N 40°14' W 072°06'2 4.3
2018-Jul-14 09:50N 40°13' W 072°04'2 5.3
2018-Jul-14 09:30N 40°13' W 072°02'1 0.9
2018-Jul-14 08:02N 40°13' W 072°03'0 4.7
2018-Jul-14 07:59N 40°13' W 072°03'1 1.2
2018-Jul-14 07:30N 40°13' W 072°02'2 4.4
2018-Jul-14 07:00N 40°14' W 072°05'1 1.5
2018-Jul-14 06:30N 40°13' W 072°04'2 4.2
2018-Jul-14 06:00N 40°13' W 072°01'3 3.9
2018-Jul-14 05:09N 40°13' W 072°06'1 4.9
2018-Jul-14 05:00N 40°13' W 072°05'  
2018-Jul-04 12:49N 40°13' W 072°02'0 1.1
2018-Jul-04 12:27N 40°13' W 072°01'1 1.6
2018-Jul-04 11:34N 40°13' W 072°03'0 4.8
2018-Jul-04 11:30N 40°13' W 072°04'  

Dump ship's entire track history